sensor_id;sensor_type;location;lat;lon;timestamp;temperature;humidity
51035;DHT22;37062;52.546;13.230;2024-01-30T00:00:30;6.60;99.90
51035;DHT22;37062;52.546;13.230;2024-01-30T00:02:58;6.60;99.90
51035;DHT22;37062;52.546;13.230;2024-01-30T00:05:28;6.60;99.90
51035;DHT22;37062;52.546;13.230;2024-01-30T00:07:56;6.50;99.90
51035;DHT22;37062;52.546;13.230;2024-01-30T00:10:25;6.50;99.90
51035;DHT22;37062;52.546;13.230;2024-01-30T00:12:53;6.50;99.90
51035;DHT22;37062;52.546;13.230;2024-01-30T00:15:21;6.50;99.90
51035;DHT22;37062;52.546;13.230;2024-01-30T00:17:49;6.50;99.90
51035;DHT22;37062;52.546;13.230;2024-01-30T00:20:20;6.50;99.90
51035;DHT22;37062;52.546;13.230;2024-01-30T00:22:54;6.50;99.90
51035;DHT22;37062;52.546;13.230;2024-01-30T00:25:22;6.50;99.90
51035;DHT22;37062;52.546;13.230;2024-01-30T00:27:52;6.50;99.90
51035;DHT22;37062;52.546;13.230;2024-01-30T00:30:22;6.50;99.90
51035;DHT22;37062;52.546;13.230;2024-01-30T00:32:53;6.50;99.90
51035;DHT22;37062;52.546;13.230;2024-01-30T00:35:22;6.40;99.90
51035;DHT22;37062;52.546;13.230;2024-01-30T00:37:56;6.40;99.90
51035;DHT22;37062;52.546;13.230;2024-01-30T00:40:25;6.40;99.90
51035;DHT22;37062;52.546;13.230;2024-01-30T00:42:54;6.40;99.90
51035;DHT22;37062;52.546;13.230;2024-01-30T00:45:22;6.40;99.90
51035;DHT22;37062;52.546;13.230;2024-01-30T00:47:52;6.30;99.90
51035;DHT22;37062;52.546;13.230;2024-01-30T00:50:20;6.30;99.90
51035;DHT22;37062;52.546;13.230;2024-01-30T00:52:48;6.30;99.90
51035;DHT22;37062;52.546;13.230;2024-01-30T00:55:18;6.30;99.90
51035;DHT22;37062;52.546;13.230;2024-01-30T00:57:46;6.20;99.90
51035;DHT22;37062;52.546;13.230;2024-01-30T01:00:15;6.20;99.90
51035;DHT22;37062;52.546;13.230;2024-01-30T01:02:44;6.20;99.90
51035;DHT22;37062;52.546;13.230;2024-01-30T01:05:14;6.20;99.90
51035;DHT22;37062;52.546;13.230;2024-01-30T01:07:43;6.20;99.90
51035;DHT22;37062;52.546;13.230;2024-01-30T01:10:12;6.10;99.90
51035;DHT22;37062;52.546;13.230;2024-01-30T01:12:48;6.10;99.90
51035;DHT22;37062;52.546;13.230;2024-01-30T01:15:17;6.10;99.90
51035;DHT22;37062;52.546;13.230;2024-01-30T01:17:45;6.10;99.90
51035;DHT22;37062;52.546;13.230;2024-01-30T01:20:13;6.10;99.90
51035;DHT22;37062;52.546;13.230;2024-01-30T01:22:44;6.00;99.90
51035;DHT22;37062;52.546;13.230;2024-01-30T01:25:12;5.90;99.90
51035;DHT22;37062;52.546;13.230;2024-01-30T01:27:41;5.90;99.90
51035;DHT22;37062;52.546;13.230;2024-01-30T01:30:16;5.90;99.90
51035;DHT22;37062;52.546;13.230;2024-01-30T01:32:49;5.90;99.90
51035;DHT22;37062;52.546;13.230;2024-01-30T01:35:22;5.90;99.90
51035;DHT22;37062;52.546;13.230;2024-01-30T01:37:52;5.90;99.90
51035;DHT22;37062;52.546;13.230;2024-01-30T01:40:26;5.90;99.90
51035;DHT22;37062;52.546;13.230;2024-01-30T01:42:55;5.90;99.90
51035;DHT22;37062;52.546;13.230;2024-01-30T01:45:25;5.80;99.90
51035;DHT22;37062;52.546;13.230;2024-01-30T01:47:56;5.70;99.90
51035;DHT22;37062;52.546;13.230;2024-01-30T01:50:24;5.70;99.90
51035;DHT22;37062;52.546;13.230;2024-01-30T01:52:54;5.70;99.90
51035;DHT22;37062;52.546;13.230;2024-01-30T01:55:23;5.70;99.90
51035;DHT22;37062;52.546;13.230;2024-01-30T01:57:54;5.80;99.90
51035;DHT22;37062;52.546;13.230;2024-01-30T02:00:25;5.80;99.90
51035;DHT22;37062;52.546;13.230;2024-01-30T02:02:56;5.80;99.90
51035;DHT22;37062;52.546;13.230;2024-01-30T02:05:27;5.80;99.90
51035;DHT22;37062;52.546;13.230;2024-01-30T02:07:57;5.80;99.90
51035;DHT22;37062;52.546;13.230;2024-01-30T02:10:30;5.80;99.90
51035;DHT22;37062;52.546;13.230;2024-01-30T02:12:59;5.80;99.90
51035;DHT22;37062;52.546;13.230;2024-01-30T02:15:31;5.80;99.90
51035;DHT22;37062;52.546;13.230;2024-01-30T02:18:06;5.70;99.90
51035;DHT22;37062;52.546;13.230;2024-01-30T02:20:42;5.80;99.90
51035;DHT22;37062;52.546;13.230;2024-01-30T02:23:15;5.70;99.90
51035;DHT22;37062;52.546;13.230;2024-01-30T02:25:54;5.70;99.90
51035;DHT22;37062;52.546;13.230;2024-01-30T02:28:22;5.60;99.90
51035;DHT22;37062;52.546;13.230;2024-01-30T02:30:50;5.70;99.90
51035;DHT22;37062;52.546;13.230;2024-01-30T02:33:19;5.70;99.90
51035;DHT22;37062;52.546;13.230;2024-01-30T02:35:48;5.70;99.90
51035;DHT22;37062;52.546;13.230;2024-01-30T02:38:21;5.70;99.90
51035;DHT22;37062;52.546;13.230;2024-01-30T02:40:51;5.70;99.90
51035;DHT22;37062;52.546;13.230;2024-01-30T02:43:20;5.70;99.90
51035;DHT22;37062;52.546;13.230;2024-01-30T02:45:48;5.60;99.90
51035;DHT22;37062;52.546;13.230;2024-01-30T02:48:21;5.70;99.90
51035;DHT22;37062;52.546;13.230;2024-01-30T02:50:50;5.70;99.90
51035;DHT22;37062;52.546;13.230;2024-01-30T02:53:19;5.60;99.90
51035;DHT22;37062;52.546;13.230;2024-01-30T02:55:48;5.70;99.90
51035;DHT22;37062;52.546;13.230;2024-01-30T02:58:21;5.60;99.90
51035;DHT22;37062;52.546;13.230;2024-01-30T03:00:51;5.60;99.90
51035;DHT22;37062;52.546;13.230;2024-01-30T03:03:20;5.70;99.90
51035;DHT22;37062;52.546;13.230;2024-01-30T03:05:49;5.60;99.90
51035;DHT22;37062;52.546;13.230;2024-01-30T03:08:17;5.70;99.90
51035;DHT22;37062;52.546;13.230;2024-01-30T03:10:47;5.70;99.90
51035;DHT22;37062;52.546;13.230;2024-01-30T03:13:16;5.60;99.90
51035;DHT22;37062;52.546;13.230;2024-01-30T03:15:44;5.60;99.90
51035;DHT22;37062;52.546;13.230;2024-01-30T03:18:12;5.60;99.90
51035;DHT22;37062;52.546;13.230;2024-01-30T03:20:41;5.60;99.90
51035;DHT22;37062;52.546;13.230;2024-01-30T03:23:09;5.60;99.90
51035;DHT22;37062;52.546;13.230;2024-01-30T03:25:39;5.60;99.90
51035;DHT22;37062;52.546;13.230;2024-01-30T03:28:12;5.70;99.90
51035;DHT22;37062;52.546;13.230;2024-01-30T03:30:40;5.70;99.90
51035;DHT22;37062;52.546;13.230;2024-01-30T03:33:08;5.70;99.90
51035;DHT22;37062;52.546;13.230;2024-01-30T03:35:38;5.70;99.90
51035;DHT22;37062;52.546;13.230;2024-01-30T03:38:10;5.80;99.90
51035;DHT22;37062;52.546;13.230;2024-01-30T03:40:41;5.90;99.90
51035;DHT22;37062;52.546;13.230;2024-01-30T03:43:20;5.90;99.90
51035;DHT22;37062;52.546;13.230;2024-01-30T03:45:48;5.90;99.90
51035;DHT22;37062;52.546;13.230;2024-01-30T03:48:16;5.90;99.90
51035;DHT22;37062;52.546;13.230;2024-01-30T03:50:45;5.90;99.90
51035;DHT22;37062;52.546;13.230;2024-01-30T03:53:13;6.00;99.90
51035;DHT22;37062;52.546;13.230;2024-01-30T03:55:41;6.00;99.90
51035;DHT22;37062;52.546;13.230;2024-01-30T03:58:10;6.10;99.90
51035;DHT22;37062;52.546;13.230;2024-01-30T04:00:40;6.00;99.90
51035;DHT22;37062;52.546;13.230;2024-01-30T04:03:08;6.00;99.90
51035;DHT22;37062;52.546;13.230;2024-01-30T04:05:40;6.00;99.90
51035;DHT22;37062;52.546;13.230;2024-01-30T04:08:09;6.00;99.90
51035;DHT22;37062;52.546;13.230;2024-01-30T04:10:37;5.90;99.90
51035;DHT22;37062;52.546;13.230;2024-01-30T04:13:05;5.90;99.90
51035;DHT22;37062;52.546;13.230;2024-01-30T04:15:39;5.90;99.90
51035;DHT22;37062;52.546;13.230;2024-01-30T04:18:08;6.00;99.90
51035;DHT22;37062;52.546;13.230;2024-01-30T04:20:36;6.00;99.90
51035;DHT22;37062;52.546;13.230;2024-01-30T04:23:09;6.00;99.90
51035;DHT22;37062;52.546;13.230;2024-01-30T04:25:40;5.90;99.90
51035;DHT22;37062;52.546;13.230;2024-01-30T04:28:10;6.00;99.90
51035;DHT22;37062;52.546;13.230;2024-01-30T04:30:42;6.00;99.90
51035;DHT22;37062;52.546;13.230;2024-01-30T04:33:12;6.00;99.90
51035;DHT22;37062;52.546;13.230;2024-01-30T04:35:41;6.00;99.90
51035;DHT22;37062;52.546;13.230;2024-01-30T04:38:11;6.00;99.90
51035;DHT22;37062;52.546;13.230;2024-01-30T04:40:42;6.00;99.90
51035;DHT22;37062;52.546;13.230;2024-01-30T04:43:10;6.00;99.90
51035;DHT22;37062;52.546;13.230;2024-01-30T04:45:40;6.00;99.90
51035;DHT22;37062;52.546;13.230;2024-01-30T04:48:08;6.00;99.90
51035;DHT22;37062;52.546;13.230;2024-01-30T04:50:38;6.00;99.90
51035;DHT22;37062;52.546;13.230;2024-01-30T04:53:06;5.90;99.90
51035;DHT22;37062;52.546;13.230;2024-01-30T04:55:35;6.00;99.90
51035;DHT22;37062;52.546;13.230;2024-01-30T04:58:04;6.00;99.90
51035;DHT22;37062;52.546;13.230;2024-01-30T05:00:32;6.00;99.90
51035;DHT22;37062;52.546;13.230;2024-01-30T05:03:04;6.00;99.90
51035;DHT22;37062;52.546;13.230;2024-01-30T05:05:33;6.00;99.90
51035;DHT22;37062;52.546;13.230;2024-01-30T05:08:06;6.00;99.90
51035;DHT22;37062;52.546;13.230;2024-01-30T05:10:34;5.90;99.90
51035;DHT22;37062;52.546;13.230;2024-01-30T05:13:04;5.90;99.90
51035;DHT22;37062;52.546;13.230;2024-01-30T05:15:33;5.90;99.90
51035;DHT22;37062;52.546;13.230;2024-01-30T05:18:01;5.90;99.90
51035;DHT22;37062;52.546;13.230;2024-01-30T05:20:37;5.90;99.90
51035;DHT22;37062;52.546;13.230;2024-01-30T05:23:09;5.90;99.90
51035;DHT22;37062;52.546;13.230;2024-01-30T05:25:39;5.80;99.90
51035;DHT22;37062;52.546;13.230;2024-01-30T05:28:08;5.90;99.90
51035;DHT22;37062;52.546;13.230;2024-01-30T05:30:36;5.90;99.90
51035;DHT22;37062;52.546;13.230;2024-01-30T05:33:06;5.80;99.90
51035;DHT22;37062;52.546;13.230;2024-01-30T05:35:36;5.80;99.90
51035;DHT22;37062;52.546;13.230;2024-01-30T05:38:04;5.80;99.90
51035;DHT22;37062;52.546;13.230;2024-01-30T05:40:32;5.80;99.90
51035;DHT22;37062;52.546;13.230;2024-01-30T05:43:00;5.80;99.90
51035;DHT22;37062;52.546;13.230;2024-01-30T05:45:30;5.80;99.90
51035;DHT22;37062;52.546;13.230;2024-01-30T05:47:58;5.90;99.90
51035;DHT22;37062;52.546;13.230;2024-01-30T05:50:26;6.00;99.90
51035;DHT22;37062;52.546;13.230;2024-01-30T05:52:56;6.00;99.90
51035;DHT22;37062;52.546;13.230;2024-01-30T05:55:24;6.00;99.90
51035;DHT22;37062;52.546;13.230;2024-01-30T05:57:52;6.00;99.90
51035;DHT22;37062;52.546;13.230;2024-01-30T06:00:21;6.00;99.90
51035;DHT22;37062;52.546;13.230;2024-01-30T06:02:49;6.00;99.90
51035;DHT22;37062;52.546;13.230;2024-01-30T06:05:23;6.00;99.90
51035;DHT22;37062;52.546;13.230;2024-01-30T06:07:52;6.00;99.90
51035;DHT22;37062;52.546;13.230;2024-01-30T06:10:24;6.00;99.90
51035;DHT22;37062;52.546;13.230;2024-01-30T06:12:53;6.00;99.90
51035;DHT22;37062;52.546;13.230;2024-01-30T06:15:22;5.90;99.90
51035;DHT22;37062;52.546;13.230;2024-01-30T06:17:52;5.90;99.90
51035;DHT22;37062;52.546;13.230;2024-01-30T06:20:31;5.90;99.90
51035;DHT22;37062;52.546;13.230;2024-01-30T06:22:59;5.80;99.90
51035;DHT22;37062;52.546;13.230;2024-01-30T06:25:32;5.70;99.90
51035;DHT22;37062;52.546;13.230;2024-01-30T06:28:04;5.80;99.90
51035;DHT22;37062;52.546;13.230;2024-01-30T06:30:32;5.70;99.90
51035;DHT22;37062;52.546;13.230;2024-01-30T06:33:03;5.70;99.90
51035;DHT22;37062;52.546;13.230;2024-01-30T06:35:31;5.80;99.90
51035;DHT22;37062;52.546;13.230;2024-01-30T06:37:59;5.80;99.90
51035;DHT22;37062;52.546;13.230;2024-01-30T06:40:27;5.80;99.90
51035;DHT22;37062;52.546;13.230;2024-01-30T06:42:57;5.80;99.90
51035;DHT22;37062;52.546;13.230;2024-01-30T06:45:25;5.70;99.90
51035;DHT22;37062;52.546;13.230;2024-01-30T06:47:58;5.70;99.90
51035;DHT22;37062;52.546;13.230;2024-01-30T06:50:32;5.70;99.90
51035;DHT22;37062;52.546;13.230;2024-01-30T06:53:03;5.80;99.90
51035;DHT22;37062;52.546;13.230;2024-01-30T06:55:31;5.80;99.90
51035;DHT22;37062;52.546;13.230;2024-01-30T06:58:00;5.80;99.90
51035;DHT22;37062;52.546;13.230;2024-01-30T07:00:29;5.90;99.90
51035;DHT22;37062;52.546;13.230;2024-01-30T07:02:59;5.90;99.90
51035;DHT22;37062;52.546;13.230;2024-01-30T07:05:27;5.80;99.90
51035;DHT22;37062;52.546;13.230;2024-01-30T07:07:56;5.80;99.90
51035;DHT22;37062;52.546;13.230;2024-01-30T07:10:25;5.80;99.90
51035;DHT22;37062;52.546;13.230;2024-01-30T07:12:54;5.80;99.90
51035;DHT22;37062;52.546;13.230;2024-01-30T07:15:23;5.80;99.90
51035;DHT22;37062;52.546;13.230;2024-01-30T07:17:52;5.80;99.90
51035;DHT22;37062;52.546;13.230;2024-01-30T07:20:20;5.90;99.90
51035;DHT22;37062;52.546;13.230;2024-01-30T07:22:49;5.90;99.90
51035;DHT22;37062;52.546;13.230;2024-01-30T07:25:22;6.10;99.90
51035;DHT22;37062;52.546;13.230;2024-01-30T07:27:54;6.10;99.90
51035;DHT22;37062;52.546;13.230;2024-01-30T07:30:27;6.10;99.90
51035;DHT22;37062;52.546;13.230;2024-01-30T07:32:59;6.10;99.90
51035;DHT22;37062;52.546;13.230;2024-01-30T07:35:34;6.20;99.90
51035;DHT22;37062;52.546;13.230;2024-01-30T07:38:02;6.20;99.90
51035;DHT22;37062;52.546;13.230;2024-01-30T07:40:31;6.20;99.90
51035;DHT22;37062;52.546;13.230;2024-01-30T07:43:00;6.20;99.90
51035;DHT22;37062;52.546;13.230;2024-01-30T07:45:34;6.30;99.90
51035;DHT22;37062;52.546;13.230;2024-01-30T07:48:03;6.50;99.90
51035;DHT22;37062;52.546;13.230;2024-01-30T07:50:31;6.60;99.90
51035;DHT22;37062;52.546;13.230;2024-01-30T07:53:00;6.70;99.90
51035;DHT22;37062;52.546;13.230;2024-01-30T07:55:30;6.80;99.90
51035;DHT22;37062;52.546;13.230;2024-01-30T07:58:01;6.80;99.90
51035;DHT22;37062;52.546;13.230;2024-01-30T08:00:32;6.80;99.90
51035;DHT22;37062;52.546;13.230;2024-01-30T08:03:02;6.80;99.90
51035;DHT22;37062;52.546;13.230;2024-01-30T08:05:32;6.80;99.90
51035;DHT22;37062;52.546;13.230;2024-01-30T08:08:03;6.80;99.90
51035;DHT22;37062;52.546;13.230;2024-01-30T08:10:34;6.90;99.90
51035;DHT22;37062;52.546;13.230;2024-01-30T08:13:04;7.10;99.90
51035;DHT22;37062;52.546;13.230;2024-01-30T08:15:38;7.20;99.90
51035;DHT22;37062;52.546;13.230;2024-01-30T08:18:08;7.20;99.90
51035;DHT22;37062;52.546;13.230;2024-01-30T08:20:37;7.20;99.90
51035;DHT22;37062;52.546;13.230;2024-01-30T08:23:05;7.30;99.90
51035;DHT22;37062;52.546;13.230;2024-01-30T08:25:33;7.30;99.90
51035;DHT22;37062;52.546;13.230;2024-01-30T08:28:07;7.30;99.90
51035;DHT22;37062;52.546;13.230;2024-01-30T08:30:37;7.40;99.90
51035;DHT22;37062;52.546;13.230;2024-01-30T08:33:07;7.40;99.90
51035;DHT22;37062;52.546;13.230;2024-01-30T08:35:35;7.50;99.90
51035;DHT22;37062;52.546;13.230;2024-01-30T08:38:05;7.60;99.90
51035;DHT22;37062;52.546;13.230;2024-01-30T08:40:33;7.70;99.90
51035;DHT22;37062;52.546;13.230;2024-01-30T08:43:01;7.80;99.90
51035;DHT22;37062;52.546;13.230;2024-01-30T08:45:31;7.90;99.90
51035;DHT22;37062;52.546;13.230;2024-01-30T08:48:00;8.00;99.90
51035;DHT22;37062;52.546;13.230;2024-01-30T08:50:29;8.20;99.90
51035;DHT22;37062;52.546;13.230;2024-01-30T08:53:06;8.30;99.90
51035;DHT22;37062;52.546;13.230;2024-01-30T08:55:36;8.40;99.90
51035;DHT22;37062;52.546;13.230;2024-01-30T08:58:13;8.50;99.90
51035;DHT22;37062;52.546;13.230;2024-01-30T09:00:42;8.70;99.90
51035;DHT22;37062;52.546;13.230;2024-01-30T09:03:12;8.80;99.90
51035;DHT22;37062;52.546;13.230;2024-01-30T09:05:40;8.70;99.90
51035;DHT22;37062;52.546;13.230;2024-01-30T09:08:08;8.70;99.90
51035;DHT22;37062;52.546;13.230;2024-01-30T09:10:37;8.70;99.90
51035;DHT22;37062;52.546;13.230;2024-01-30T09:13:10;8.80;99.90
51035;DHT22;37062;52.546;13.230;2024-01-30T09:15:42;8.80;99.90
51035;DHT22;37062;52.546;13.230;2024-01-30T09:18:15;8.80;99.90
51035;DHT22;37062;52.546;13.230;2024-01-30T09:20:45;9.00;99.90
51035;DHT22;37062;52.546;13.230;2024-01-30T09:23:14;9.10;99.90
51035;DHT22;37062;52.546;13.230;2024-01-30T09:25:48;9.20;99.90
51035;DHT22;37062;52.546;13.230;2024-01-30T09:28:17;9.30;99.90
51035;DHT22;37062;52.546;13.230;2024-01-30T09:30:45;9.40;99.90
51035;DHT22;37062;52.546;13.230;2024-01-30T09:33:22;9.40;99.90
51035;DHT22;37062;52.546;13.230;2024-01-30T09:35:50;9.50;99.90
51035;DHT22;37062;52.546;13.230;2024-01-30T09:38:19;9.50;99.90
51035;DHT22;37062;52.546;13.230;2024-01-30T09:40:54;9.60;99.90
51035;DHT22;37062;52.546;13.230;2024-01-30T09:43:23;9.70;99.90
51035;DHT22;37062;52.546;13.230;2024-01-30T09:45:54;9.90;99.90
51035;DHT22;37062;52.546;13.230;2024-01-30T09:48:25;10.00;99.90
51035;DHT22;37062;52.546;13.230;2024-01-30T09:50:54;10.00;99.90
51035;DHT22;37062;52.546;13.230;2024-01-30T09:53:25;9.90;99.90
51035;DHT22;37062;52.546;13.230;2024-01-30T09:55:53;9.90;99.90
51035;DHT22;37062;52.546;13.230;2024-01-30T09:58:21;9.90;99.90
51035;DHT22;37062;52.546;13.230;2024-01-30T10:00:50;10.00;99.90
51035;DHT22;37062;52.546;13.230;2024-01-30T10:03:21;10.00;99.90
51035;DHT22;37062;52.546;13.230;2024-01-30T10:05:52;10.10;99.90
51035;DHT22;37062;52.546;13.230;2024-01-30T10:08:23;10.20;99.90
51035;DHT22;37062;52.546;13.230;2024-01-30T10:10:51;10.30;99.90
51035;DHT22;37062;52.546;13.230;2024-01-30T10:13:19;10.30;99.90
51035;DHT22;37062;52.546;13.230;2024-01-30T10:15:47;10.20;99.90
51035;DHT22;37062;52.546;13.230;2024-01-30T10:18:16;10.10;99.90
51035;DHT22;37062;52.546;13.230;2024-01-30T10:20:45;10.10;99.90
51035;DHT22;37062;52.546;13.230;2024-01-30T10:23:15;10.10;99.90
51035;DHT22;37062;52.546;13.230;2024-01-30T10:25:43;10.20;99.90
51035;DHT22;37062;52.546;13.230;2024-01-30T10:28:12;10.00;99.90
51035;DHT22;37062;52.546;13.230;2024-01-30T10:30:40;9.90;99.90
51035;DHT22;37062;52.546;13.230;2024-01-30T10:33:08;10.00;99.90
51035;DHT22;37062;52.546;13.230;2024-01-30T10:35:43;10.00;99.90
51035;DHT22;37062;52.546;13.230;2024-01-30T10:38:16;9.90;99.90
51035;DHT22;37062;52.546;13.230;2024-01-30T10:40:48;9.90;99.90
51035;DHT22;37062;52.546;13.230;2024-01-30T10:43:21;10.00;99.90
51035;DHT22;37062;52.546;13.230;2024-01-30T10:45:53;10.00;99.90
51035;DHT22;37062;52.546;13.230;2024-01-30T10:48:22;10.10;99.90
51035;DHT22;37062;52.546;13.230;2024-01-30T10:50:55;10.20;99.90
51035;DHT22;37062;52.546;13.230;2024-01-30T10:53:29;10.20;99.90
51035;DHT22;37062;52.546;13.230;2024-01-30T10:55:59;10.30;99.90
51035;DHT22;37062;52.546;13.230;2024-01-30T10:58:29;10.30;99.90
51035;DHT22;37062;52.546;13.230;2024-01-30T11:00:58;10.40;99.90
51035;DHT22;37062;52.546;13.230;2024-01-30T11:03:27;10.50;99.90
51035;DHT22;37062;52.546;13.230;2024-01-30T11:05:59;10.50;99.90
51035;DHT22;37062;52.546;13.230;2024-01-30T11:08:32;10.50;99.90
51035;DHT22;37062;52.546;13.230;2024-01-30T11:11:00;10.60;99.90
51035;DHT22;37062;52.546;13.230;2024-01-30T11:13:29;10.60;99.90
51035;DHT22;37062;52.546;13.230;2024-01-30T11:16:00;10.60;99.90
51035;DHT22;37062;52.546;13.230;2024-01-30T11:18:30;10.50;99.90
51035;DHT22;37062;52.546;13.230;2024-01-30T11:20:59;10.50;99.90
51035;DHT22;37062;52.546;13.230;2024-01-30T11:23:33;10.40;99.90
51035;DHT22;37062;52.546;13.230;2024-01-30T11:26:01;10.50;99.90
51035;DHT22;37062;52.546;13.230;2024-01-30T11:28:32;10.50;99.90
51035;DHT22;37062;52.546;13.230;2024-01-30T11:31:06;10.50;99.90
51035;DHT22;37062;52.546;13.230;2024-01-30T11:33:35;10.50;99.90
51035;DHT22;37062;52.546;13.230;2024-01-30T11:36:04;10.50;99.90
51035;DHT22;37062;52.546;13.230;2024-01-30T11:38:35;10.50;99.90
51035;DHT22;37062;52.546;13.230;2024-01-30T11:41:04;10.50;99.90
51035;DHT22;37062;52.546;13.230;2024-01-30T11:43:35;10.60;99.90
51035;DHT22;37062;52.546;13.230;2024-01-30T11:46:06;10.60;99.90
51035;DHT22;37062;52.546;13.230;2024-01-30T11:48:36;10.70;99.90
51035;DHT22;37062;52.546;13.230;2024-01-30T11:51:05;10.80;99.90
51035;DHT22;37062;52.546;13.230;2024-01-30T11:53:35;10.80;99.90
51035;DHT22;37062;52.546;13.230;2024-01-30T11:56:06;10.80;99.90
51035;DHT22;37062;52.546;13.230;2024-01-30T11:58:35;11.00;99.90
51035;DHT22;37062;52.546;13.230;2024-01-30T12:01:04;11.10;99.90
51035;DHT22;37062;52.546;13.230;2024-01-30T12:03:32;11.20;99.90
51035;DHT22;37062;52.546;13.230;2024-01-30T12:06:03;11.00;99.90
51035;DHT22;37062;52.546;13.230;2024-01-30T12:08:32;11.00;99.90
51035;DHT22;37062;52.546;13.230;2024-01-30T12:11:01;11.10;99.90
51035;DHT22;37062;52.546;13.230;2024-01-30T12:13:32;11.20;99.90
51035;DHT22;37062;52.546;13.230;2024-01-30T12:16:02;11.20;99.90
51035;DHT22;37062;52.546;13.230;2024-01-30T12:18:30;11.30;99.90
51035;DHT22;37062;52.546;13.230;2024-01-30T12:20:59;11.20;99.90
51035;DHT22;37062;52.546;13.230;2024-01-30T12:23:28;11.30;99.90
51035;DHT22;37062;52.546;13.230;2024-01-30T12:25:57;11.40;99.90
51035;DHT22;37062;52.546;13.230;2024-01-30T12:28:27;11.40;99.90
51035;DHT22;37062;52.546;13.230;2024-01-30T12:30:56;11.40;99.90
51035;DHT22;37062;52.546;13.230;2024-01-30T12:33:26;11.30;99.90
51035;DHT22;37062;52.546;13.230;2024-01-30T12:35:55;11.30;99.90
51035;DHT22;37062;52.546;13.230;2024-01-30T12:38:29;11.40;99.90
51035;DHT22;37062;52.546;13.230;2024-01-30T12:40:58;11.30;99.90
51035;DHT22;37062;52.546;13.230;2024-01-30T12:43:28;11.10;99.90
51035;DHT22;37062;52.546;13.230;2024-01-30T12:46:05;11.20;99.90
51035;DHT22;37062;52.546;13.230;2024-01-30T12:48:34;11.30;99.90
51035;DHT22;37062;52.546;13.230;2024-01-30T12:51:02;11.30;99.90
51035;DHT22;37062;52.546;13.230;2024-01-30T12:53:31;11.10;99.90
51035;DHT22;37062;52.546;13.230;2024-01-30T12:55:59;11.20;99.90
51035;DHT22;37062;52.546;13.230;2024-01-30T12:58:29;11.10;99.90
51035;DHT22;37062;52.546;13.230;2024-01-30T13:00:57;11.00;99.90
51035;DHT22;37062;52.546;13.230;2024-01-30T13:03:26;11.00;99.90
51035;DHT22;37062;52.546;13.230;2024-01-30T13:05:56;11.00;99.90
51035;DHT22;37062;52.546;13.230;2024-01-30T13:08:24;10.90;99.90
51035;DHT22;37062;52.546;13.230;2024-01-30T13:10:52;10.80;99.90
51035;DHT22;37062;52.546;13.230;2024-01-30T13:13:21;10.80;99.90
51035;DHT22;37062;52.546;13.230;2024-01-30T13:15:50;10.70;99.90
51035;DHT22;37062;52.546;13.230;2024-01-30T13:18:19;10.70;99.90
51035;DHT22;37062;52.546;13.230;2024-01-30T13:20:47;10.80;99.90
51035;DHT22;37062;52.546;13.230;2024-01-30T13:23:15;11.00;99.90
51035;DHT22;37062;52.546;13.230;2024-01-30T13:25:44;11.20;99.90
51035;DHT22;37062;52.546;13.230;2024-01-30T13:28:12;11.30;99.90
51035;DHT22;37062;52.546;13.230;2024-01-30T13:30:40;11.20;99.90
51035;DHT22;37062;52.546;13.230;2024-01-30T13:33:10;11.20;99.90
51035;DHT22;37062;52.546;13.230;2024-01-30T13:35:39;11.10;99.90
51035;DHT22;37062;52.546;13.230;2024-01-30T13:38:07;11.20;99.90
51035;DHT22;37062;52.546;13.230;2024-01-30T13:40:35;11.30;99.90
51035;DHT22;37062;52.546;13.230;2024-01-30T13:43:04;11.40;99.90
51035;DHT22;37062;52.546;13.230;2024-01-30T13:45:32;11.40;99.90
51035;DHT22;37062;52.546;13.230;2024-01-30T13:48:00;11.40;99.90
51035;DHT22;37062;52.546;13.230;2024-01-30T13:50:31;11.30;99.90
51035;DHT22;37062;52.546;13.230;2024-01-30T13:53:02;11.30;99.90
51035;DHT22;37062;52.546;13.230;2024-01-30T13:55:31;11.30;99.90
51035;DHT22;37062;52.546;13.230;2024-01-30T13:58:00;11.20;99.90
51035;DHT22;37062;52.546;13.230;2024-01-30T14:00:29;11.30;99.90
51035;DHT22;37062;52.546;13.230;2024-01-30T14:02:57;11.30;99.90
51035;DHT22;37062;52.546;13.230;2024-01-30T14:05:26;11.40;99.90
51035;DHT22;37062;52.546;13.230;2024-01-30T14:07:57;11.30;99.90
51035;DHT22;37062;52.546;13.230;2024-01-30T14:10:26;11.30;99.90
51035;DHT22;37062;52.546;13.230;2024-01-30T14:12:54;11.30;99.90
51035;DHT22;37062;52.546;13.230;2024-01-30T14:15:23;11.30;99.90
51035;DHT22;37062;52.546;13.230;2024-01-30T14:17:55;11.30;99.90
51035;DHT22;37062;52.546;13.230;2024-01-30T14:20:25;11.40;99.90
51035;DHT22;37062;52.546;13.230;2024-01-30T14:22:55;11.50;99.90
51035;DHT22;37062;52.546;13.230;2024-01-30T14:25:24;11.40;99.90
51035;DHT22;37062;52.546;13.230;2024-01-30T14:27:52;11.40;99.90
51035;DHT22;37062;52.546;13.230;2024-01-30T14:30:21;11.50;99.90
51035;DHT22;37062;52.546;13.230;2024-01-30T14:32:50;11.50;99.90
51035;DHT22;37062;52.546;13.230;2024-01-30T14:35:18;11.50;99.90
51035;DHT22;37062;52.546;13.230;2024-01-30T14:37:47;11.60;99.90
51035;DHT22;37062;52.546;13.230;2024-01-30T14:40:17;11.60;99.90
51035;DHT22;37062;52.546;13.230;2024-01-30T14:42:46;11.60;99.90
51035;DHT22;37062;52.546;13.230;2024-01-30T14:45:14;11.50;99.90
51035;DHT22;37062;52.546;13.230;2024-01-30T14:47:43;11.50;99.90
51035;DHT22;37062;52.546;13.230;2024-01-30T14:50:11;11.40;99.90
51035;DHT22;37062;52.546;13.230;2024-01-30T14:52:40;11.40;99.90
51035;DHT22;37062;52.546;13.230;2024-01-30T14:55:08;11.40;99.90
51035;DHT22;37062;52.546;13.230;2024-01-30T14:57:38;11.30;99.90
51035;DHT22;37062;52.546;13.230;2024-01-30T15:00:10;11.30;99.90
51035;DHT22;37062;52.546;13.230;2024-01-30T15:02:38;11.30;99.90
51035;DHT22;37062;52.546;13.230;2024-01-30T15:05:07;11.40;99.90
51035;DHT22;37062;52.546;13.230;2024-01-30T15:07:38;11.40;99.90
51035;DHT22;37062;52.546;13.230;2024-01-30T15:10:07;11.40;99.90
51035;DHT22;37062;52.546;13.230;2024-01-30T15:12:38;11.30;99.90
51035;DHT22;37062;52.546;13.230;2024-01-30T15:15:07;11.30;99.90
51035;DHT22;37062;52.546;13.230;2024-01-30T15:17:37;11.20;99.90
51035;DHT22;37062;52.546;13.230;2024-01-30T15:20:07;11.20;99.90
51035;DHT22;37062;52.546;13.230;2024-01-30T15:22:36;11.10;99.90
51035;DHT22;37062;52.546;13.230;2024-01-30T15:25:05;11.10;99.90
51035;DHT22;37062;52.546;13.230;2024-01-30T15:27:34;11.10;99.90
51035;DHT22;37062;52.546;13.230;2024-01-30T15:30:04;11.10;99.90
51035;DHT22;37062;52.546;13.230;2024-01-30T15:32:32;11.10;99.90
51035;DHT22;37062;52.546;13.230;2024-01-30T15:35:01;11.10;99.90
51035;DHT22;37062;52.546;13.230;2024-01-30T15:37:31;11.10;99.90
51035;DHT22;37062;52.546;13.230;2024-01-30T15:40:00;11.10;99.90